Time;durP1;ratioP1;P1;durP2;ratioP2;P2;SDS_P1;SDS_P2;PMS_P1;PMS_P2;Temp;Humidity;BMP_temperature;BMP_pressure;BME280_temperature;BME280_humidity;BME280_pressure;Samples;Min_cycle;Max_cycle;Signal;HPM_P1;HPM_P2
2021/08/12 00:00:00;;;;;;;8.20;7.50;;;22.20;99.90;;;;;;6181348;23;20429;-85
2021/08/12 00:02:27;;;;;;;9.10;8.23;;;22.20;99.90;;;;;;6180376;23;20446;-82
2021/08/12 00:04:54;;;;;;;7.23;6.63;;;22.20;99.90;;;;;;6176862;23;20420;-85
2021/08/12 00:07:21;;;;;;;8.17;7.37;;;22.20;99.90;;;;;;6175417;23;20421;-83
2021/08/12 00:09:49;;;;;;;9.03;8.13;;;22.10;99.90;;;;;;6201801;23;20472;-83
2021/08/12 00:12:16;;;;;;;9.90;9.00;;;22.10;99.90;;;;;;6199102;23;20425;-83
2021/08/12 00:17:27;;;;;;;8.70;7.87;;;22.30;99.90;;;;;;6158189;23;20794;-84
2021/08/12 00:19:53;;;;;;;9.37;8.40;;;22.50;99.90;;;;;;6161365;23;20425;-82
2021/08/12 00:22:21;;;;;;;10.10;9.20;;;22.30;99.90;;;;;;6134076;23;20431;-84
2021/08/12 00:24:48;;;;;;;10.10;9.10;;;22.20;99.90;;;;;;6161098;23;20415;-84
2021/08/12 00:27:15;;;;;;;10.37;9.47;;;22.00;99.90;;;;;;6160656;23;20403;-83
2021/08/12 00:29:41;;;;;;;11.00;8.80;;;21.70;99.90;;;;;;6177854;23;20437;-83
2021/08/12 00:32:08;;;;;;;10.33;9.33;;;21.70;99.90;;;;;;6180235;23;20423;-84
2021/08/12 00:34:35;;;;;;;9.67;8.87;;;21.70;99.90;;;;;;6181431;23;20462;-84
2021/08/12 00:37:04;;;;;;;10.63;9.60;;;21.60;99.90;;;;;;6168662;23;20413;-84
2021/08/12 00:39:31;;;;;;;9.67;8.73;;;21.60;99.90;;;;;;6141843;23;20411;-84
2021/08/12 00:41:57;;;;;;;10.50;8.73;;;21.60;99.90;;;;;;6175932;23;20426;-85
2021/08/12 00:44:25;;;;;;;10.10;9.13;;;21.60;99.90;;;;;;6180763;23;20479;-85
2021/08/12 00:46:51;;;;;;;9.63;8.73;;;21.40;99.90;;;;;;6180413;23;20546;-85
2021/08/12 00:49:19;;;;;;;10.63;9.73;;;21.40;99.90;;;;;;6181035;23;20418;-84
2021/08/12 00:51:47;;;;;;;9.70;8.90;;;21.50;99.90;;;;;;6180808;23;20422;-85
2021/08/12 00:54:14;;;;;;;9.93;8.93;;;21.20;99.90;;;;;;6154413;23;20473;-84
2021/08/12 00:56:42;;;;;;;10.00;9.03;;;21.20;99.90;;;;;;6155187;23;20394;-84
2021/08/12 00:59:09;;;;;;;9.63;8.70;;;21.00;99.90;;;;;;6182273;23;20427;-84
2021/08/12 01:01:36;;;;;;;10.77;9.00;;;21.00;99.90;;;;;;6180680;23;20398;-84
2021/08/12 01:04:03;;;;;;;9.97;8.97;;;21.10;99.90;;;;;;6154934;23;20478;-84
2021/08/12 01:06:35;;;;;;;10.77;9.67;;;21.00;99.90;;;;;;6173950;23;20434;-83
2021/08/12 01:09:06;;;;;;;8.90;8.13;;;20.90;99.90;;;;;;6168846;23;20423;-84
2021/08/12 01:11:48;;;;;;;9.83;8.60;;;20.90;99.90;;;;;;6169220;23;20438;-84
2021/08/12 01:14:39;;;;;;;9.97;9.13;;;20.90;99.90;;;;;;6161887;23;20447;-85
2021/08/12 01:17:11;;;;;;;9.03;8.23;;;20.90;99.90;;;;;;6161242;23;20419;-82
2021/08/12 01:19:56;;;;;;;10.37;9.30;;;21.00;99.90;;;;;;6135534;23;20470;-83
2021/08/12 01:22:25;;;;;;;9.13;8.23;;;21.00;99.90;;;;;;6165237;23;20509;-83
2021/08/12 01:24:54;;;;;;;9.17;8.33;;;21.20;99.90;;;;;;6113859;23;20411;-83
2021/08/12 01:27:29;;;;;;;10.03;9.13;;;21.20;99.90;;;;;;6169704;23;20464;-82
2021/08/12 01:30:11;;;;;;;9.30;8.40;;;21.20;99.90;;;;;;6175400;23;20399;-84
2021/08/12 01:33:08;;;;;;;10.10;9.20;;;21.10;99.90;;;;;;6155092;23;20509;-83
2021/08/12 01:35:38;;;;;;;9.10;7.90;;;21.30;99.90;;;;;;6181992;23;20407;-84
2021/08/12 01:38:11;;;;;;;9.67;8.67;;;21.30;99.90;;;;;;6182131;23;20513;-83
2021/08/12 01:40:38;;;;;;;11.90;8.70;;;21.00;99.90;;;;;;6182778;23;20439;-83
2021/08/12 01:43:14;;;;;;;8.27;7.57;;;20.80;99.90;;;;;;6147833;23;20484;-82
2021/08/12 01:45:45;;;;;;;8.93;7.60;;;20.60;99.90;;;;;;6173332;23;20426;-85
2021/08/12 01:48:12;;;;;;;9.50;8.50;;;20.70;99.90;;;;;;6139202;23;20731;-84
2021/08/12 01:50:40;;;;;;;8.77;7.57;;;20.50;99.90;;;;;;6162417;23;20413;-83
2021/08/12 01:53:06;;;;;;;9.00;8.17;;;20.50;99.90;;;;;;6163755;23;20423;-83
2021/08/12 01:55:33;;;;;;;9.23;7.87;;;20.50;99.90;;;;;;6163629;23;21035;-83
2021/08/12 01:58:01;;;;;;;9.60;8.70;;;20.30;99.90;;;;;;6163010;23;20399;-84
2021/08/12 02:00:30;;;;;;;10.30;9.30;;;20.20;99.90;;;;;;6162941;23;20415;-82
2021/08/12 02:02:59;;;;;;;9.30;8.30;;;20.00;99.90;;;;;;6169967;23;20425;-84
2021/08/12 02:05:27;;;;;;;9.50;7.70;;;20.00;99.90;;;;;;6161592;23;20407;-85
2021/08/12 02:07:54;;;;;;;7.57;6.90;;;20.00;99.90;;;;;;6162146;23;20394;-84
2021/08/12 02:10:20;;;;;;;8.33;7.43;;;20.00;99.90;;;;;;6162947;23;20421;-84
2021/08/12 02:12:47;;;;;;;7.93;7.20;;;20.20;99.90;;;;;;6139977;23;20427;-83
2021/08/12 02:15:14;;;;;;;8.70;7.90;;;20.20;99.90;;;;;;6171990;23;20414;-82
2021/08/12 02:17:41;;;;;;;9.50;8.53;;;20.10;99.90;;;;;;6145178;23;20402;-84
2021/08/12 02:20:11;;;;;;;8.90;8.00;;;20.00;99.90;;;;;;6170649;23;20439;-84
2021/08/12 02:22:47;;;;;;;9.77;8.87;;;19.90;99.90;;;;;;6139419;23;20922;-84
2021/08/12 02:25:28;;;;;;;8.30;7.50;;;19.80;99.90;;;;;;6164293;23;20431;-84
2021/08/12 02:27:57;;;;;;;10.23;7.43;;;19.80;99.90;;;;;;6161560;23;20383;-83
2021/08/12 02:30:24;;;;;;;8.83;8.03;;;19.80;99.90;;;;;;6163555;23;20400;-84
2021/08/12 02:32:52;;;;;;;11.17;7.10;;;19.70;99.90;;;;;;6162984;23;20431;-84
2021/08/12 02:35:20;;;;;;;8.17;7.47;;;19.70;99.90;;;;;;6167257;23;20430;-83
2021/08/12 02:37:52;;;;;;;8.80;7.90;;;19.60;99.90;;;;;;6141663;23;20415;-84
2021/08/12 02:40:20;;;;;;;8.17;7.47;;;19.60;99.90;;;;;;6169533;23;20391;-84
2021/08/12 02:42:47;;;;;;;8.40;7.60;;;19.70;99.90;;;;;;6164342;23;20435;-84
2021/08/12 02:45:16;;;;;;;7.47;6.83;;;19.60;99.90;;;;;;6158583;23;20407;-82
2021/08/12 02:47:44;;;;;;;8.50;7.70;;;19.50;99.90;;;;;;6132861;23;20514;-83
2021/08/12 02:50:11;;;;;;;7.90;7.10;;;19.50;99.90;;;;;;6160747;23;20411;-83
2021/08/12 02:52:40;;;;;;;7.80;7.00;;;19.50;99.90;;;;;;6130895;23;20442;-83
2021/08/12 02:55:09;;;;;;;7.53;6.80;;;19.60;99.90;;;;;;6158282;23;20455;-83
2021/08/12 02:57:36;;;;;;;8.47;7.73;;;19.50;99.90;;;;;;6156971;23;20426;-85
2021/08/12 03:00:04;;;;;;;7.83;7.13;;;19.60;99.90;;;;;;6157502;23;20411;-84
2021/08/12 03:02:33;;;;;;;8.37;7.60;;;19.50;99.90;;;;;;6156996;23;20485;-83
2021/08/12 03:05:00;;;;;;;8.30;6.93;;;19.70;99.90;;;;;;6158738;23;20410;-83
2021/08/12 03:07:29;;;;;;;10.33;7.17;;;19.70;99.90;;;;;;6157174;23;20445;-83
2021/08/12 03:09:58;;;;;;;8.70;7.90;;;19.50;99.90;;;;;;6158388;23;20429;-83
2021/08/12 03:12:24;;;;;;;7.90;7.20;;;19.40;99.90;;;;;;6157852;23;20435;-85
2021/08/12 03:14:52;;;;;;;7.77;7.07;;;19.30;99.90;;;;;;6158267;23;20411;-82
2021/08/12 03:17:20;;;;;;;8.83;7.17;;;19.30;99.90;;;;;;6128634;23;20450;-84
2021/08/12 03:19:47;;;;;;;7.83;7.03;;;19.30;99.90;;;;;;6158398;23;21070;-83
2021/08/12 03:22:15;;;;;;;7.57;6.77;;;19.20;99.90;;;;;;6131377;23;20441;-84
2021/08/12 03:24:47;;;;;;;8.90;8.00;;;19.20;99.90;;;;;;6132751;23;20415;-84
2021/08/12 03:27:16;;;;;;;8.63;6.93;;;19.30;99.90;;;;;;6158647;23;20449;-84
2021/08/12 03:29:44;;;;;;;9.70;8.17;;;19.50;99.90;;;;;;6133416;23;20916;-84
2021/08/12 03:32:11;;;;;;;8.07;7.27;;;19.40;99.90;;;;;;6132994;23;20435;-84
2021/08/12 03:34:38;;;;;;;8.87;7.97;;;19.40;99.90;;;;;;6157830;23;20407;-84
2021/08/12 03:37:05;;;;;;;9.07;7.30;;;19.40;99.90;;;;;;6158604;23;20422;-83
2021/08/12 03:39:32;;;;;;;8.33;6.30;;;19.30;99.90;;;;;;6157595;23;20418;-83
2021/08/12 03:42:00;;;;;;;7.43;6.73;;;19.30;99.90;;;;;;6159528;23;20431;-85
2021/08/12 03:44:27;;;;;;;10.10;7.70;;;19.50;99.90;;;;;;6159704;23;20402;-84
2021/08/12 03:47:02;;;;;;;7.87;7.07;;;19.60;99.90;;;;;;6165943;23;20446;-84
2021/08/12 03:49:29;;;;;;;8.50;7.70;;;19.60;99.90;;;;;;6172357;23;20407;-83
2021/08/12 03:51:56;;;;;;;8.07;7.27;;;19.50;99.90;;;;;;6135049;23;20422;-83
2021/08/12 03:54:22;;;;;;;9.90;8.23;;;19.40;99.90;;;;;;6134688;23;20665;-84
2021/08/12 03:56:49;;;;;;;9.57;8.47;;;19.40;99.90;;;;;;6159554;23;20411;-84
2021/08/12 03:59:16;;;;;;;8.27;7.57;;;19.30;99.90;;;;;;6160576;23;20407;-83
2021/08/12 04:01:42;;;;;;;9.37;7.33;;;19.30;99.90;;;;;;6159465;23;20467;-83
2021/08/12 04:04:09;;;;;;;8.67;7.87;;;19.20;99.90;;;;;;6132035;23;20690;-84
2021/08/12 04:06:36;;;;;;;8.50;7.60;;;19.30;99.90;;;;;;6158865;23;20447;-83
2021/08/12 04:09:03;;;;;;;9.40;7.60;;;19.30;99.90;;;;;;6133740;23;20467;-84
2021/08/12 04:11:29;;;;;;;12.00;8.63;;;19.40;99.90;;;;;;6159632;23;20419;-84
2021/08/12 04:13:57;;;;;;;8.77;7.83;;;19.40;99.90;;;;;;6134410;23;20403;-84
2021/08/12 04:16:23;;;;;;;12.00;9.00;;;19.40;99.90;;;;;;6160224;23;20423;-84
2021/08/12 04:18:50;;;;;;;12.57;9.33;;;19.40;99.90;;;;;;6162236;23;20441;-85
2021/08/12 04:21:16;;;;;;;8.73;7.57;;;19.50;99.90;;;;;;6162233;23;20419;-84
2021/08/12 04:23:43;;;;;;;9.00;8.00;;;19.30;99.90;;;;;;6158278;23;20459;-82
2021/08/12 04:26:10;;;;;;;9.40;8.17;;;19.30;99.90;;;;;;6159383;23;20442;-83
2021/08/12 04:28:46;;;;;;;12.70;8.80;;;19.20;99.90;;;;;;6159432;23;20395;-83
2021/08/12 04:31:13;;;;;;;13.90;8.90;;;19.40;99.90;;;;;;6159575;23;20430;-84
2021/08/12 04:33:40;;;;;;;11.00;8.30;;;19.30;99.90;;;;;;6158874;23;20426;-83
2021/08/12 04:36:06;;;;;;;11.10;8.57;;;19.10;99.90;;;;;;6160719;23;20425;-84
2021/08/12 04:38:33;;;;;;;9.80;8.20;;;19.20;99.90;;;;;;6160175;23;20411;-83
2021/08/12 04:41:00;;;;;;;12.17;8.90;;;19.20;99.90;;;;;;6159757;23;20407;-83
2021/08/12 04:43:26;;;;;;;13.67;9.10;;;19.30;99.90;;;;;;6159210;23;20446;-83
2021/08/12 04:45:53;;;;;;;12.57;9.10;;;19.30;99.90;;;;;;6135687;23;20406;-82
2021/08/12 04:48:20;;;;;;;12.70;9.13;;;19.20;99.90;;;;;;6163786;23;20407;-84
2021/08/12 04:50:46;;;;;;;8.90;7.73;;;19.20;99.90;;;;;;6138633;23;20423;-85
2021/08/12 04:53:13;;;;;;;8.60;7.80;;;19.20;99.90;;;;;;6162170;23;20461;-83
2021/08/12 04:55:40;;;;;;;11.73;9.10;;;19.00;99.90;;;;;;6135845;23;20415;-85
2021/08/12 04:58:07;;;;;;;14.90;8.73;;;19.10;99.90;;;;;;6161231;23;20419;-84
2021/08/12 05:00:34;;;;;;;10.90;8.50;;;18.90;99.90;;;;;;6162356;23;20414;-85
2021/08/12 05:03:01;;;;;;;9.60;8.60;;;19.00;99.90;;;;;;6161717;23;20431;-84
2021/08/12 05:05:29;;;;;;;10.40;7.47;;;19.00;99.90;;;;;;6136764;23;20410;-84
2021/08/12 05:07:55;;;;;;;8.83;7.60;;;19.00;99.90;;;;;;6162843;23;20439;-84
2021/08/12 05:10:22;;;;;;;10.70;8.83;;;19.00;99.90;;;;;;6137742;23;20495;-85
2021/08/12 05:12:51;;;;;;;11.03;8.93;;;19.00;99.90;;;;;;6135954;23;20441;-84
2021/08/12 05:15:18;;;;;;;9.27;8.47;;;18.90;99.90;;;;;;6162525;23;20407;-83
2021/08/12 05:17:45;;;;;;;12.23;8.30;;;18.90;99.90;;;;;;6166853;23;20427;-83
2021/08/12 05:20:12;;;;;;;8.67;7.87;;;19.00;99.90;;;;;;6175979;23;20411;-83
2021/08/12 05:22:38;;;;;;;8.93;8.13;;;18.80;99.90;;;;;;6154919;23;20427;-84
2021/08/12 05:25:06;;;;;;;12.33;7.23;;;18.90;99.90;;;;;;6180541;23;20487;-83
2021/08/12 05:27:33;;;;;;;9.00;8.10;;;18.90;99.90;;;;;;6170075;23;20465;-85
2021/08/12 05:29:59;;;;;;;7.63;6.93;;;19.10;99.90;;;;;;6166157;23;20403;-84
2021/08/12 05:32:26;;;;;;;8.13;7.43;;;19.20;99.90;;;;;;6165142;23;20431;-85
2021/08/12 05:34:53;;;;;;;7.50;6.80;;;19.40;99.90;;;;;;6163646;23;20726;-84
2021/08/12 05:37:20;;;;;;;8.40;7.60;;;19.40;99.90;;;;;;6161132;23;20863;-84
2021/08/12 05:39:47;;;;;;;7.97;7.17;;;19.40;99.90;;;;;;6163931;23;20419;-84
2021/08/12 05:42:14;;;;;;;9.57;7.40;;;19.40;99.90;;;;;;6164521;23;20435;-85
2021/08/12 05:44:40;;;;;;;10.10;8.30;;;19.30;99.90;;;;;;6163011;23;20534;-85
2021/08/12 05:47:07;;;;;;;8.13;7.17;;;19.30;99.90;;;;;;6137304;23;20447;-85
2021/08/12 05:49:34;;;;;;;8.93;7.90;;;19.40;99.90;;;;;;6164375;23;20471;-84
2021/08/12 05:52:00;;;;;;;8.67;7.70;;;19.50;99.90;;;;;;6162891;23;20414;-82
2021/08/12 05:54:29;;;;;;;8.43;7.53;;;19.40;99.90;;;;;;6166296;23;20407;-83
2021/08/12 05:56:56;;;;;;;11.30;8.03;;;19.40;99.90;;;;;;6169537;23;20502;-82
2021/08/12 05:59:23;;;;;;;10.03;8.07;;;19.60;99.90;;;;;;6169583;23;20395;-84
2021/08/12 06:01:49;;;;;;;10.60;8.30;;;19.70;99.90;;;;;;6167208;23;20418;-84
2021/08/12 06:04:16;;;;;;;8.77;7.93;;;19.70;99.90;;;;;;6167167;23;20395;-85
2021/08/12 06:06:42;;;;;;;8.90;8.00;;;19.70;99.90;;;;;;6146166;23;20507;-84
2021/08/12 06:09:09;;;;;;;10.23;8.10;;;19.90;99.90;;;;;;6163468;23;20417;-84
2021/08/12 06:11:36;;;;;;;8.70;7.90;;;20.00;99.90;;;;;;6160784;23;20490;-83
2021/08/12 06:14:03;;;;;;;10.60;9.60;;;20.00;99.90;;;;;;6137641;23;20409;-83
2021/08/12 06:16:29;;;;;;;10.40;9.37;;;20.00;99.90;;;;;;6160954;23;20442;-84
2021/08/12 06:18:56;;;;;;;9.83;8.93;;;20.10;99.90;;;;;;6161340;23;20383;-83
2021/08/12 06:21:23;;;;;;;12.00;9.63;;;20.20;99.90;;;;;;6159897;23;20411;-83
2021/08/12 06:23:51;;;;;;;9.13;8.33;;;20.40;99.90;;;;;;6171582;23;20419;-82
2021/08/12 06:26:18;;;;;;;10.13;9.17;;;20.40;99.90;;;;;;6142727;23;20427;-83
2021/08/12 06:28:46;;;;;;;10.93;9.00;;;20.40;99.90;;;;;;6137794;23;20415;-84
2021/08/12 06:31:13;;;;;;;10.43;9.43;;;20.60;99.90;;;;;;6163197;23;20475;-82
2021/08/12 06:33:40;;;;;;;9.13;8.30;;;21.00;99.90;;;;;;6136512;23;20829;-83
2021/08/12 06:36:07;;;;;;;10.23;9.27;;;21.20;99.90;;;;;;6162672;23;20416;-83
2021/08/12 06:38:34;;;;;;;12.17;9.07;;;21.10;99.90;;;;;;6162828;23;20413;-83
2021/08/12 06:41:04;;;;;;;10.47;9.47;;;21.20;99.90;;;;;;6161077;23;20411;-83
2021/08/12 06:43:30;;;;;;;12.13;9.50;;;21.10;99.90;;;;;;6135360;23;20613;-85
2021/08/12 06:45:57;;;;;;;11.27;10.17;;;21.00;99.90;;;;;;6135044;23;20843;-84
2021/08/12 06:48:24;;;;;;;12.03;8.90;;;21.10;99.90;;;;;;6133929;23;21154;-84
2021/08/12 06:50:51;;;;;;;10.17;9.20;;;21.00;99.90;;;;;;6136254;23;20411;-84
2021/08/12 06:53:18;;;;;;;10.13;9.13;;;21.20;99.90;;;;;;6161179;23;20466;-84
2021/08/12 06:55:44;;;;;;;10.53;9.43;;;21.30;99.90;;;;;;6134646;23;20399;-85
2021/08/12 06:58:11;;;;;;;11.47;10.20;;;21.60;99.90;;;;;;6134485;23;20546;-83
2021/08/12 07:00:37;;;;;;;11.83;10.63;;;21.50;99.90;;;;;;6161039;23;20905;-85
2021/08/12 07:03:04;;;;;;;11.70;10.50;;;21.60;99.90;;;;;;6134291;23;20550;-85
2021/08/12 07:05:31;;;;;;;9.17;8.27;;;21.60;99.90;;;;;;6160440;23;20394;-85
2021/08/12 07:07:59;;;;;;;10.43;9.47;;;21.70;99.90;;;;;;6160446;23;20443;-83
2021/08/12 07:10:26;;;;;;;13.47;9.43;;;21.70;99.90;;;;;;6133599;23;20423;-83
2021/08/12 07:12:53;;;;;;;10.83;9.83;;;21.80;99.90;;;;;;6158378;23;20423;-83
2021/08/12 07:15:19;;;;;;;9.93;9.00;;;22.00;99.90;;;;;;6133809;23;20741;-84
2021/08/12 07:17:46;;;;;;;10.97;9.87;;;22.00;99.90;;;;;;6159960;23;20421;-85
2021/08/12 07:20:13;;;;;;;10.33;9.00;;;22.10;99.90;;;;;;6160952;23;20409;-84
2021/08/12 07:22:40;;;;;;;11.30;10.20;;;22.40;99.90;;;;;;6160159;23;20433;-84
2021/08/12 07:25:07;;;;;;;9.93;8.93;;;22.40;99.90;;;;;;6161440;23;20406;-83
2021/08/12 07:27:35;;;;;;;12.17;10.80;;;22.60;99.90;;;;;;6160777;23;20462;-81
2021/08/12 07:30:04;;;;;;;12.70;10.77;;;22.90;99.90;;;;;;6135426;23;20780;-84
2021/08/12 07:32:31;;;;;;;11.20;10.20;;;23.00;99.90;;;;;;6134827;23;20426;-85
2021/08/12 07:34:57;;;;;;;12.50;11.30;;;22.90;99.90;;;;;;6133959;23;20861;-84
2021/08/12 07:37:24;;;;;;;12.80;11.67;;;22.70;99.90;;;;;;6135882;23;20442;-83
2021/08/12 07:39:51;;;;;;;12.43;11.13;;;22.40;99.90;;;;;;6136417;23;20898;-85
2021/08/12 07:42:20;;;;;;;10.67;9.67;;;22.20;99.90;;;;;;6161441;23;20462;-85
2021/08/12 07:44:47;;;;;;;11.60;10.40;;;21.90;99.90;;;;;;6136968;23;20411;-83
2021/08/12 07:47:14;;;;;;;12.03;10.53;;;22.20;99.90;;;;;;6135679;23;21167;-84
2021/08/12 07:49:41;;;;;;;11.07;9.90;;;22.30;99.90;;;;;;6111374;23;20418;-85
2021/08/12 07:52:08;;;;;;;10.70;9.80;;;22.50;99.90;;;;;;6160633;23;20956;-84
2021/08/12 07:54:36;;;;;;;11.17;10.07;;;22.60;99.90;;;;;;6135941;23;20411;-85
2021/08/12 07:57:04;;;;;;;11.17;10.07;;;22.70;99.90;;;;;;6134590;23;20419;-84
2021/08/12 07:59:31;;;;;;;12.73;9.30;;;23.30;99.90;;;;;;6133489;23;20816;-85
2021/08/12 08:01:57;;;;;;;10.30;9.20;;;23.50;99.90;;;;;;6136112;23;20489;-85
2021/08/12 08:04:43;;;;;;;;;;;;;;;;;;;;;
2021/08/12 08:07:37;;;;;;;11.37;10.13;;;24.60;98.20;;;;;;6145131;23;20458;-86
2021/08/12 08:10:19;;;;;;;10.10;9.13;;;24.80;96.80;;;;;;6139945;23;20414;-85
2021/08/12 08:12:56;;;;;;;11.20;9.33;;;25.00;96.90;;;;;;6135813;23;20756;-84
2021/08/12 08:15:27;;;;;;;10.77;9.63;;;25.50;95.90;;;;;;6136715;23;20906;-85
2021/08/12 08:18:06;;;;;;;11.10;8.87;;;26.40;95.10;;;;;;6138608;23;20415;-86
2021/08/12 08:20:43;;;;;;;10.30;9.20;;;28.20;91.60;;;;;;6137206;23;20415;-85
2021/08/12 08:23:19;;;;;;;10.10;9.20;;;27.90;90.10;;;;;;6134355;23;20430;-85
2021/08/12 08:25:46;;;;;;;9.20;7.70;;;27.20;91.20;;;;;;6162850;23;20499;-85
2021/08/12 08:28:15;;;;;;;11.70;9.30;;;27.00;91.60;;;;;;6134011;23;20489;-83
2021/08/12 08:30:54;;;;;;;11.47;10.30;;;27.10;91.50;;;;;;6150018;23;20858;-84
2021/08/12 08:33:35;;;;;;;10.37;9.37;;;27.10;91.40;;;;;;6153593;23;20489;-85
2021/08/12 08:36:24;;;;;;;12.57;9.83;;;27.10;91.30;;;;;;6173970;23;20418;-85
2021/08/12 08:39:15;;;;;;;16.60;9.73;;;27.30;91.10;;;;;;6142501;23;20414;-84
2021/08/12 08:42:07;;;;;;;10.93;9.83;;;27.10;91.00;;;;;;6126791;23;20419;-84
2021/08/12 08:45:05;;;;;;;11.60;9.70;;;27.20;91.20;;;;;;6141939;23;20407;-85
2021/08/12 08:47:59;;;;;;;13.17;9.70;;;27.60;90.00;;;;;;6135806;23;20837;-85
2021/08/12 08:51:09;;;;;;;13.20;9.23;;;28.00;89.80;;;;;;6144877;23;20430;-85
2021/08/12 08:54:27;;;;;;;10.57;9.60;;;29.20;85.30;;;;;;6139894;23;20470;-85
2021/08/12 08:57:20;;;;;;;10.27;9.13;;;29.50;82.00;;;;;;6137821;23;20442;-84
2021/08/12 09:00:21;;;;;;;13.00;9.77;;;30.00;81.50;;;;;;6140188;23;20422;-85
2021/08/12 09:03:35;;;;;;;10.13;8.97;;;31.30;75.80;;;;;;6036828;23;20412;-84
2021/08/12 09:06:17;;;;;;;13.27;9.53;;;32.30;69.90;;;;;;6106282;23;20418;-85
2021/08/12 09:09:08;;;;;;;9.90;8.83;;;32.40;67.70;;;;;;6140691;23;20767;-85
2021/08/12 09:12:02;;;;;;;10.00;9.00;;;31.70;68.20;;;;;;6136835;23;20477;-86
2021/08/12 09:14:52;;;;;;;12.10;10.83;;;30.90;70.90;;;;;;6137233;23;20471;-85
2021/08/12 09:17:48;;;;;;;10.90;9.90;;;30.80;71.20;;;;;;6138797;23;20422;-84
2021/08/12 09:20:36;;;;;;;11.23;9.10;;;30.60;71.30;;;;;;6136614;23;20426;-85
2021/08/12 09:24:04;;;;;;;11.83;10.70;;;30.30;71.90;;;;;;6098143;23;20435;-84
2021/08/12 09:27:27;;;;;;;10.47;9.50;;;30.60;71.30;;;;;;6129544;23;20438;-86
2021/08/12 09:30:26;;;;;;;11.93;10.73;;;31.40;68.10;;;;;;6161966;23;20415;-86
2021/08/12 09:33:01;;;;;;;12.40;10.37;;;31.00;67.60;;;;;;6136597;23;20419;-84
2021/08/12 09:35:43;;;;;;;10.60;9.60;;;30.50;69.10;;;;;;6139204;23;20409;-85
2021/08/12 09:38:21;;;;;;;14.00;9.93;;;30.50;69.20;;;;;;6140342;23;20394;-83
2021/08/12 09:41:03;;;;;;;10.30;9.40;;;29.80;70.60;;;;;;6143927;23;20411;-84
2021/08/12 09:43:42;;;;;;;10.53;9.50;;;28.80;73.80;;;;;;6137576;23;20429;-84
2021/08/12 09:46:35;;;;;;;12.00;10.80;;;28.10;77.00;;;;;;6146349;23;20362;-85
2021/08/12 09:49:02;;;;;;;15.00;10.03;;;27.70;79.10;;;;;;6164710;23;20447;-84
2021/08/12 09:51:34;;;;;;;10.03;9.07;;;27.40;81.20;;;;;;6170399;23;20403;-85
2021/08/12 09:54:02;;;;;;;10.13;9.00;;;27.50;79.50;;;;;;6173878;23;20568;-84
2021/08/12 09:56:29;;;;;;;9.47;8.67;;;27.10;81.40;;;;;;6157799;23;20403;-84
2021/08/12 09:59:09;;;;;;;10.30;9.37;;;27.00;81.60;;;;;;6169403;23;20429;-83
2021/08/12 10:01:38;;;;;;;9.43;8.53;;;27.30;80.80;;;;;;6159872;23;20446;-85
2021/08/12 10:04:37;;;;;;;10.60;7.87;;;27.50;79.80;;;;;;6133976;23;20473;-84
2021/08/12 10:07:04;;;;;;;9.17;8.27;;;28.20;79.20;;;;;;6133414;23;20460;-85
2021/08/12 10:09:40;;;;;;;8.87;8.17;;;29.20;74.80;;;;;;6134697;23;20772;-85
2021/08/12 10:12:31;;;;;;;8.23;7.43;;;29.60;72.40;;;;;;6133403;23;20438;-83
2021/08/12 10:14:58;;;;;;;12.10;8.63;;;29.50;72.00;;;;;;6160176;23;20391;-83
2021/08/12 10:17:25;;;;;;;9.33;7.47;;;28.90;73.70;;;;;;6159137;23;20776;-83
2021/08/12 10:19:58;;;;;;;9.60;7.93;;;28.60;75.20;;;;;;6160946;23;20417;-83
2021/08/12 10:22:25;;;;;;;7.50;6.90;;;28.30;75.50;;;;;;6173270;23;20414;-83
2021/08/12 10:24:52;;;;;;;7.93;6.53;;;28.20;76.00;;;;;;6180073;23;20437;-84
2021/08/12 10:27:19;;;;;;;9.23;6.87;;;28.50;75.10;;;;;;6171264;23;20414;-84
2021/08/12 10:29:48;;;;;;;8.77;7.00;;;29.40;71.00;;;;;;6191869;23;20411;-84
2021/08/12 10:32:15;;;;;;;7.77;6.10;;;29.90;68.30;;;;;;6164927;23;20447;-84
2021/08/12 10:34:42;;;;;;;6.90;6.20;;;30.00;66.30;;;;;;6163178;23;20443;-85
2021/08/12 10:37:10;;;;;;;6.37;5.77;;;29.80;67.50;;;;;;6163212;23;20419;-85
2021/08/12 10:39:39;;;;;;;6.23;5.63;;;29.70;66.10;;;;;;6161364;23;20471;-85
2021/08/12 10:42:07;;;;;;;7.00;6.30;;;29.20;66.20;;;;;;6162527;23;20427;-86
2021/08/12 10:44:36;;;;;;;6.30;5.70;;;28.80;67.00;;;;;;6160065;23;20407;-85
2021/08/12 10:47:03;;;;;;;5.87;5.30;;;28.40;67.10;;;;;;6162240;23;21051;-85
2021/08/12 10:49:34;;;;;;;6.00;5.37;;;27.90;69.80;;;;;;6161869;23;20466;-85
2021/08/12 10:52:04;;;;;;;6.97;5.80;;;27.40;71.70;;;;;;6161081;23;20415;-85
2021/08/12 10:54:36;;;;;;;7.13;6.43;;;27.80;70.90;;;;;;6162373;23;20410;-84
2021/08/12 10:57:11;;;;;;;6.60;5.90;;;27.70;71.20;;;;;;6163392;23;20399;-85
2021/08/12 10:59:40;;;;;;;5.83;5.27;;;27.10;73.30;;;;;;6160912;23;20411;-83
2021/08/12 11:02:25;;;;;;;6.70;5.97;;;26.80;75.40;;;;;;6160225;23;20445;-83
2021/08/12 11:04:52;;;;;;;9.40;8.33;;;27.10;75.10;;;;;;6160178;23;20447;-83
2021/08/12 11:07:38;;;;;;;7.63;6.37;;;27.10;74.30;;;;;;6160249;23;20391;-84
2021/08/12 11:10:10;;;;;;;10.67;8.50;;;27.00;74.50;;;;;;6164195;23;20533;-84
2021/08/12 11:12:52;;;;;;;7.50;6.80;;;26.70;75.70;;;;;;6162674;23;20506;-83
2021/08/12 11:15:38;;;;;;;8.27;7.10;;;26.60;76.70;;;;;;6161795;23;20470;-85
2021/08/12 11:18:06;;;;;;;8.90;8.10;;;26.60;77.40;;;;;;6161559;23;20419;-84
2021/08/12 11:20:41;;;;;;;8.23;7.43;;;26.60;77.90;;;;;;6164786;23;20407;-86
2021/08/12 11:23:20;;;;;;;12.00;10.00;;;26.70;78.30;;;;;;6179381;23;20421;-84
2021/08/12 11:26:00;;;;;;;9.67;7.77;;;27.10;76.80;;;;;;6180943;23;20410;-85
2021/08/12 11:28:39;;;;;;;7.67;6.90;;;27.40;75.70;;;;;;6181140;23;20467;-84
2021/08/12 11:31:06;;;;;;;8.23;7.30;;;27.60;73.00;;;;;;6148051;23;20505;-85
2021/08/12 11:33:47;;;;;;;7.60;6.90;;;27.30;72.70;;;;;;6136845;23;20528;-84
2021/08/12 11:36:34;;;;;;;7.20;6.50;;;27.30;72.00;;;;;;6135703;23;20478;-84
2021/08/12 11:39:05;;;;;;;6.10;5.50;;;27.40;70.50;;;;;;6136510;23;20391;-84
2021/08/12 11:41:43;;;;;;;6.63;5.90;;;27.30;69.60;;;;;;6133690;23;20746;-84
2021/08/12 11:44:12;;;;;;;7.87;7.23;;;27.30;69.90;;;;;;6133984;23;20406;-84
2021/08/12 11:46:40;;;;;;;6.73;6.03;;;27.30;71.60;;;;;;6159963;23;20431;-84
2021/08/12 11:49:16;;;;;;;7.87;5.17;;;27.30;71.60;;;;;;6174562;23;20442;-84
2021/08/12 11:51:57;;;;;;;11.20;6.40;;;27.70;69.80;;;;;;6140421;23;20395;-82
2021/08/12 11:54:26;;;;;;;6.10;5.60;;;27.70;70.20;;;;;;6133239;23;20414;-83
2021/08/12 11:56:53;;;;;;;7.20;5.60;;;28.00;69.00;;;;;;6133914;23;20462;-84
2021/08/12 11:59:30;;;;;;;5.73;5.20;;;28.10;68.30;;;;;;6160052;23;20421;-84
2021/08/12 12:02:06;;;;;;;5.73;5.27;;;28.60;67.60;;;;;;6167262;23;20437;-85
2021/08/12 12:04:33;;;;;;;6.00;5.33;;;28.60;66.80;;;;;;6161200;23;20399;-85
2021/08/12 12:07:00;;;;;;;5.63;5.23;;;28.70;67.60;;;;;;6158973;23;20375;-85
2021/08/12 12:09:29;;;;;;;5.70;5.30;;;28.70;66.30;;;;;;6157512;23;20452;-85
2021/08/12 12:12:02;;;;;;;8.37;4.80;;;28.70;66.10;;;;;;6133531;23;20888;-85
2021/08/12 12:14:49;;;;;;;4.53;4.13;;;29.10;63.50;;;;;;6159485;23;20401;-85
2021/08/12 12:17:19;;;;;;;5.50;5.00;;;29.30;62.50;;;;;;6133424;23;20395;-84
2021/08/12 12:20:13;;;;;;;6.00;5.43;;;28.90;64.10;;;;;;6133142;23;20454;-85
2021/08/12 12:22:45;;;;;;;6.00;5.40;;;29.20;63.90;;;;;;6133107;23;20415;-84
2021/08/12 12:25:20;;;;;;;6.60;4.67;;;29.20;64.20;;;;;;6160487;23;20458;-86
2021/08/12 12:27:47;;;;;;;5.70;4.57;;;29.10;64.70;;;;;;6158688;23;20425;-86
2021/08/12 12:30:17;;;;;;;6.27;5.67;;;29.60;62.50;;;;;;6142250;23;20417;-87
2021/08/12 12:32:59;;;;;;;5.77;4.70;;;29.80;61.50;;;;;;6174732;23;20415;-86
2021/08/12 12:35:27;;;;;;;6.00;5.40;;;29.30;63.10;;;;;;6149499;23;20791;-85
2021/08/12 12:37:55;;;;;;;5.80;5.30;;;30.20;61.70;;;;;;6142597;23;20415;-86
2021/08/12 12:40:23;;;;;;;6.67;5.80;;;30.30;60.90;;;;;;6138532;23;20486;-86
2021/08/12 12:42:52;;;;;;;5.33;4.80;;;30.20;59.50;;;;;;6162826;23;20450;-85
2021/08/12 12:45:22;;;;;;;5.83;5.23;;;29.90;60.40;;;;;;6137848;23;20418;-85
2021/08/12 12:47:49;;;;;;;5.50;4.90;;;30.00;59.80;;;;;;6135224;23;20458;-84
2021/08/12 12:50:19;;;;;;;4.70;4.30;;;30.10;60.20;;;;;;6135154;23;20442;-85
2021/08/12 12:52:57;;;;;;;5.80;4.70;;;30.10;59.90;;;;;;6133947;23;20506;-85
2021/08/12 12:55:32;;;;;;;5.00;4.60;;;30.40;58.70;;;;;;6135834;23;20410;-83
2021/08/12 12:58:12;;;;;;;5.57;5.07;;;30.10;59.20;;;;;;6137346;23;20407;-86
2021/08/12 13:00:39;;;;;;;5.07;4.67;;;30.10;59.40;;;;;;6162099;23;20409;-84
2021/08/12 13:03:06;;;;;;;5.40;5.00;;;30.60;57.80;;;;;;6149440;23;20427;-85
2021/08/12 13:05:58;;;;;;;4.60;4.20;;;30.80;56.70;;;;;;6155565;23;20434;-86
2021/08/12 13:08:33;;;;;;;4.87;4.43;;;30.50;56.90;;;;;;6151789;23;20501;-85